Rising Sun, Montana
Current Conditions -  °F | °C
As of 12:55 PM on Friday 24 Oct 2014 (Local Time) from KGPI Reporting Station
Overcast Overcast  
Wind Chill: 11°   Ceiling: 5500
Heat Index: 11°   Visibility: 10mi
Dew Point:   Wind: 8mph
Humidity: 61%   Direction: 170°S
Pressure: 30.1"   Gusts: NA
Location:  48.7064°N, 113.591°W
Report Text: KGPI 241855Z 17007KT 10SM OVC055 11/03 A3010 RMK AO2 SLP199 T01060033
Loading
Personal Weather Stations






























Interactive Weather Map
Tropical Storm Tracking
New forecast layout! Learn more

10-Day Weather Forecast

Advertisements
Track Severe Weather on mobile